sensor_id;sensor_type;location;lat;lon;timestamp;pressure;altitude;pressure_sealevel;temperature;humidity
17781;BME280;8498;52.516;13.790;2023-03-23T00:00:53;100108.63;;;13.30;71.27
17781;BME280;8498;52.516;13.790;2023-03-23T00:06:16;100092.06;;;13.26;71.34
17781;BME280;8498;52.516;13.790;2023-03-23T00:11:41;100085.78;;;13.06;73.11
17781;BME280;8498;52.516;13.790;2023-03-23T00:17:03;100078.38;;;12.79;74.27
17781;BME280;8498;52.516;13.790;2023-03-23T00:22:24;100064.19;;;12.48;76.16
17781;BME280;8498;52.516;13.790;2023-03-23T00:27:46;100049.00;;;12.19;77.11
17781;BME280;8498;52.516;13.790;2023-03-23T00:33:08;100056.72;;;12.01;77.98
17781;BME280;8498;52.516;13.790;2023-03-23T00:38:30;100061.69;;;11.94;77.77
17781;BME280;8498;52.516;13.790;2023-03-23T00:43:51;100043.41;;;11.80;78.21
17781;BME280;8498;52.516;13.790;2023-03-23T00:49:14;100053.72;;;11.62;78.85
17781;BME280;8498;52.516;13.790;2023-03-23T00:54:36;100044.66;;;11.54;79.29
17781;BME280;8498;52.516;13.790;2023-03-23T00:59:58;100042.47;;;11.59;78.99
17781;BME280;8498;52.516;13.790;2023-03-23T01:05:20;100037.97;;;11.70;78.58
17781;BME280;8498;52.516;13.790;2023-03-23T01:10:42;100039.88;;;11.80;78.12
17781;BME280;8498;52.516;13.790;2023-03-23T01:16:05;100024.47;;;11.62;77.81
17781;BME280;8498;52.516;13.790;2023-03-23T01:21:26;100016.31;;;11.32;78.72
17781;BME280;8498;52.516;13.790;2023-03-23T01:26:48;100013.47;;;11.13;79.61
17781;BME280;8498;52.516;13.790;2023-03-23T01:32:09;99998.47;;;11.12;80.45
17781;BME280;8498;52.516;13.790;2023-03-23T01:37:30;99986.44;;;10.96;80.00
17781;BME280;8498;52.516;13.790;2023-03-23T01:42:52;99985.81;;;11.04;79.95
17781;BME280;8498;52.516;13.790;2023-03-23T01:48:28;99997.22;;;10.73;80.89
17781;BME280;8498;52.516;13.790;2023-03-23T01:53:55;99998.81;;;10.53;81.85
17781;BME280;8498;52.516;13.790;2023-03-23T01:59:19;99984.09;;;10.38;82.99
17781;BME280;8498;52.516;13.790;2023-03-23T02:04:47;99998.44;;;10.35;83.06
17781;BME280;8498;52.516;13.790;2023-03-23T02:10:09;99981.28;;;10.28;83.20
17781;BME280;8498;52.516;13.790;2023-03-23T02:16:34;99972.69;;;10.13;83.98
17781;BME280;8498;52.516;13.790;2023-03-23T02:38:53;99960.44;;;10.46;84.19
17781;BME280;8498;52.516;13.790;2023-03-23T02:44:17;99955.31;;;10.87;81.93
17781;BME280;8498;52.516;13.790;2023-03-23T02:49:40;99964.84;;;11.22;79.73
17781;BME280;8498;52.516;13.790;2023-03-23T02:55:03;99947.69;;;11.58;77.76
17781;BME280;8498;52.516;13.790;2023-03-23T03:00:25;99955.16;;;11.85;76.15
17781;BME280;8498;52.516;13.790;2023-03-23T03:11:26;99960.53;;;12.15;75.92
17781;BME280;8498;52.516;13.790;2023-03-23T03:17:01;99968.88;;;12.22;76.65
17781;BME280;8498;52.516;13.790;2023-03-23T03:22:27;99960.63;;;12.25;76.24
17781;BME280;8498;52.516;13.790;2023-03-23T03:27:51;99956.31;;;12.33;76.04
17781;BME280;8498;52.516;13.790;2023-03-23T03:33:27;99954.06;;;12.38;75.62
17781;BME280;8498;52.516;13.790;2023-03-23T03:38:52;99949.91;;;12.45;74.61
17781;BME280;8498;52.516;13.790;2023-03-23T03:44:15;99943.19;;;12.51;75.43
17781;BME280;8498;52.516;13.790;2023-03-23T03:49:36;99946.25;;;12.46;76.45
17781;BME280;8498;52.516;13.790;2023-03-23T03:54:58;99940.06;;;12.46;76.69
17781;BME280;8498;52.516;13.790;2023-03-23T04:00:20;99928.31;;;12.48;76.64
17781;BME280;8498;52.516;13.790;2023-03-23T04:05:44;99933.50;;;12.50;76.98
17781;BME280;8498;52.516;13.790;2023-03-23T04:11:08;99930.56;;;12.43;78.00
17781;BME280;8498;52.516;13.790;2023-03-23T04:16:30;99927.19;;;12.41;79.43
17781;BME280;8498;52.516;13.790;2023-03-23T04:21:52;99932.34;;;12.33;79.65
17781;BME280;8498;52.516;13.790;2023-03-23T04:27:14;99929.00;;;12.41;79.63
17781;BME280;8498;52.516;13.790;2023-03-23T04:32:36;99905.50;;;12.25;81.32
17781;BME280;8498;52.516;13.790;2023-03-23T04:38:02;99918.94;;;12.14;82.96
17781;BME280;8498;52.516;13.790;2023-03-23T04:43:24;99908.47;;;12.22;82.24
17781;BME280;8498;52.516;13.790;2023-03-23T04:49:08;99920.72;;;12.34;81.56
17781;BME280;8498;52.516;13.790;2023-03-23T04:54:33;99918.53;;;12.19;84.50
17781;BME280;8498;52.516;13.790;2023-03-23T04:59:56;99919.16;;;12.01;86.88
17781;BME280;8498;52.516;13.790;2023-03-23T05:05:30;99941.63;;;11.88;88.36
17781;BME280;8498;52.516;13.790;2023-03-23T05:10:59;99947.00;;;11.76;89.53
17781;BME280;8498;52.516;13.790;2023-03-23T05:16:26;99938.66;;;11.81;90.12
17781;BME280;8498;52.516;13.790;2023-03-23T05:21:50;99943.25;;;11.79;90.66
17781;BME280;8498;52.516;13.790;2023-03-23T05:27:12;99942.66;;;11.75;91.31
17781;BME280;8498;52.516;13.790;2023-03-23T05:32:40;99936.84;;;11.70;93.05
17781;BME280;8498;52.516;13.790;2023-03-23T05:38:19;99948.06;;;11.74;93.93
17781;BME280;8498;52.516;13.790;2023-03-23T05:43:41;99950.63;;;11.75;94.14
17781;BME280;8498;52.516;13.790;2023-03-23T05:49:03;99963.69;;;11.79;94.60
17781;BME280;8498;52.516;13.790;2023-03-23T05:54:31;99958.56;;;11.87;94.79
17781;BME280;8498;52.516;13.790;2023-03-23T05:59:52;99977.44;;;11.84;95.27
17781;BME280;8498;52.516;13.790;2023-03-23T06:05:17;99963.88;;;11.87;96.29
17781;BME280;8498;52.516;13.790;2023-03-23T06:10:45;99971.19;;;11.94;96.52
17781;BME280;8498;52.516;13.790;2023-03-23T06:16:08;99978.03;;;12.08;94.89
17781;BME280;8498;52.516;13.790;2023-03-23T06:21:42;99986.56;;;12.32;92.06
17781;BME280;8498;52.516;13.790;2023-03-23T06:27:27;99985.69;;;12.22;91.36
17781;BME280;8498;52.516;13.790;2023-03-23T06:32:50;99992.22;;;12.18;92.63
17781;BME280;8498;52.516;13.790;2023-03-23T06:38:20;99986.47;;;12.13;94.24
17781;BME280;8498;52.516;13.790;2023-03-23T06:43:45;100006.88;;;12.03;96.33
17781;BME280;8498;52.516;13.790;2023-03-23T06:49:10;100008.41;;;12.05;97.99
17781;BME280;8498;52.516;13.790;2023-03-23T06:54:41;100005.50;;;12.08;98.95
17781;BME280;8498;52.516;13.790;2023-03-23T07:00:04;100010.56;;;12.11;100.00
17781;BME280;8498;52.516;13.790;2023-03-23T07:05:37;100014.38;;;12.19;100.00
17781;BME280;8498;52.516;13.790;2023-03-23T07:10:59;100015.41;;;12.27;100.00
17781;BME280;8498;52.516;13.790;2023-03-23T07:16:23;100011.25;;;12.34;100.00
17781;BME280;8498;52.516;13.790;2023-03-23T07:21:46;100012.16;;;12.44;100.00
17781;BME280;8498;52.516;13.790;2023-03-23T07:27:08;100005.78;;;12.36;100.00
17781;BME280;8498;52.516;13.790;2023-03-23T07:32:31;100009.03;;;12.39;100.00
17781;BME280;8498;52.516;13.790;2023-03-23T07:37:53;100018.28;;;12.35;100.00
17781;BME280;8498;52.516;13.790;2023-03-23T07:43:15;100014.38;;;12.39;100.00
17781;BME280;8498;52.516;13.790;2023-03-23T07:48:54;99995.97;;;12.36;100.00
17781;BME280;8498;52.516;13.790;2023-03-23T07:54:22;100018.88;;;12.48;100.00
17781;BME280;8498;52.516;13.790;2023-03-23T07:59:43;100009.28;;;12.36;100.00
17781;BME280;8498;52.516;13.790;2023-03-23T08:05:06;100012.47;;;12.51;100.00
17781;BME280;8498;52.516;13.790;2023-03-23T08:10:28;100013.72;;;12.57;100.00
17781;BME280;8498;52.516;13.790;2023-03-23T08:16:05;100005.56;;;12.79;100.00
17781;BME280;8498;52.516;13.790;2023-03-23T08:21:43;99959.44;;;12.88;100.00
17781;BME280;8498;52.516;13.790;2023-03-23T08:27:23;99976.94;;;12.81;100.00
17781;BME280;8498;52.516;13.790;2023-03-23T08:33:14;99977.78;;;12.81;100.00
17781;BME280;8498;52.516;13.790;2023-03-23T08:38:58;99996.63;;;12.99;100.00
17781;BME280;8498;52.516;13.790;2023-03-23T08:44:58;100019.66;;;13.00;100.00
17781;BME280;8498;52.516;13.790;2023-03-23T08:50:40;100008.75;;;13.13;100.00
17781;BME280;8498;52.516;13.790;2023-03-23T08:56:12;100024.38;;;13.17;99.71
17781;BME280;8498;52.516;13.790;2023-03-23T09:01:56;100023.09;;;13.21;98.76
17781;BME280;8498;52.516;13.790;2023-03-23T09:07:28;100002.22;;;13.27;99.04
17781;BME280;8498;52.516;13.790;2023-03-23T09:12:49;99997.16;;;13.43;97.29
17781;BME280;8498;52.516;13.790;2023-03-23T09:18:11;100014.16;;;13.61;94.79
17781;BME280;8498;52.516;13.790;2023-03-23T09:23:33;100010.50;;;13.81;94.42
17781;BME280;8498;52.516;13.790;2023-03-23T09:28:55;100020.06;;;13.93;94.02
17781;BME280;8498;52.516;13.790;2023-03-23T09:34:17;100018.22;;;14.04;92.71
17781;BME280;8498;52.516;13.790;2023-03-23T09:39:41;100006.53;;;14.14;92.33
17781;BME280;8498;52.516;13.790;2023-03-23T09:50:32;100015.38;;;14.24;90.81
17781;BME280;8498;52.516;13.790;2023-03-23T09:55:55;100015.94;;;14.28;90.78
17781;BME280;8498;52.516;13.790;2023-03-23T10:01:30;100024.75;;;14.57;88.84
17781;BME280;8498;52.516;13.790;2023-03-23T10:07:11;100024.75;;;14.85;86.57
17781;BME280;8498;52.516;13.790;2023-03-23T10:12:56;100021.97;;;15.14;85.14
17781;BME280;8498;52.516;13.790;2023-03-23T10:18:29;100013.63;;;15.17;84.36
17781;BME280;8498;52.516;13.790;2023-03-23T10:34:45;100009.78;;;15.47;81.44
17781;BME280;8498;52.516;13.790;2023-03-23T10:40:22;100003.69;;;15.54;80.37
17781;BME280;8498;52.516;13.790;2023-03-23T10:45:51;99991.34;;;15.79;78.50
17781;BME280;8498;52.516;13.790;2023-03-23T10:51:18;99984.47;;;15.94;77.03
17781;BME280;8498;52.516;13.790;2023-03-23T10:56:43;99989.81;;;15.94;76.68
17781;BME280;8498;52.516;13.790;2023-03-23T11:02:15;100000.84;;;15.91;74.88
17781;BME280;8498;52.516;13.790;2023-03-23T11:07:37;100005.44;;;15.81;75.00
17781;BME280;8498;52.516;13.790;2023-03-23T11:12:59;100002.00;;;15.71;75.06
17781;BME280;8498;52.516;13.790;2023-03-23T11:18:24;100003.75;;;15.80;74.25
17781;BME280;8498;52.516;13.790;2023-03-23T11:23:57;100008.94;;;15.99;74.40
17781;BME280;8498;52.516;13.790;2023-03-23T11:29:22;100013.69;;;16.05;72.63
17781;BME280;8498;52.516;13.790;2023-03-23T11:34:48;100002.66;;;16.08;73.09
17781;BME280;8498;52.516;13.790;2023-03-23T11:45:37;100000.53;;;16.38;70.66
17781;BME280;8498;52.516;13.790;2023-03-23T11:51:02;100002.81;;;16.59;69.46
17781;BME280;8498;52.516;13.790;2023-03-23T11:56:38;100015.59;;;16.65;68.93
17781;BME280;8498;52.516;13.790;2023-03-23T12:24:46;100022.53;;;17.17;65.74
17781;BME280;8498;52.516;13.790;2023-03-23T12:30:36;100025.94;;;17.36;63.79
17781;BME280;8498;52.516;13.790;2023-03-23T12:53:10;100007.97;;;17.20;61.79
17781;BME280;8498;52.516;13.790;2023-03-23T12:58:36;100003.47;;;17.29;62.31
17781;BME280;8498;52.516;13.790;2023-03-23T13:04:14;99994.88;;;17.25;61.97
17781;BME280;8498;52.516;13.790;2023-03-23T13:26:26;99989.47;;;18.79;57.79
17781;BME280;8498;52.516;13.790;2023-03-23T13:31:48;99986.00;;;18.54;56.37
17781;BME280;8498;52.516;13.790;2023-03-23T13:37:20;99985.69;;;18.65;56.47
17781;BME280;8498;52.516;13.790;2023-03-23T13:42:52;99984.22;;;18.94;55.43
17781;BME280;8498;52.516;13.790;2023-03-23T13:53:47;99963.97;;;18.67;53.60
17781;BME280;8498;52.516;13.790;2023-03-23T13:59:13;99958.72;;;18.74;53.68
17781;BME280;8498;52.516;13.790;2023-03-23T14:04:36;99958.22;;;18.70;53.93
17781;BME280;8498;52.516;13.790;2023-03-23T14:10:06;99952.56;;;18.96;51.46
17781;BME280;8498;52.516;13.790;2023-03-23T14:15:30;99960.03;;;19.70;50.11
17781;BME280;8498;52.516;13.790;2023-03-23T14:20:52;99966.38;;;19.24;51.67
17781;BME280;8498;52.516;13.790;2023-03-23T14:26:19;99949.50;;;19.61;51.03
17781;BME280;8498;52.516;13.790;2023-03-23T14:31:41;99971.19;;;18.75;51.27
17781;BME280;8498;52.516;13.790;2023-03-23T14:37:03;99965.75;;;18.11;52.99
17781;BME280;8498;52.516;13.790;2023-03-23T14:42:29;99976.81;;;17.59;54.53
17781;BME280;8498;52.516;13.790;2023-03-23T14:47:59;99967.09;;;17.58;55.24
17781;BME280;8498;52.516;13.790;2023-03-23T14:58:45;99963.66;;;17.24;56.07
17781;BME280;8498;52.516;13.790;2023-03-23T15:04:26;99959.66;;;17.12;56.47
17781;BME280;8498;52.516;13.790;2023-03-23T15:09:47;99982.41;;;17.00;57.30
17781;BME280;8498;52.516;13.790;2023-03-23T15:15:21;99989.75;;;16.90;59.28
17781;BME280;8498;52.516;13.790;2023-03-23T15:20:47;100010.78;;;16.68;63.68
17781;BME280;8498;52.516;13.790;2023-03-23T15:26:27;100007.34;;;16.06;71.69
17781;BME280;8498;52.516;13.790;2023-03-23T15:31:51;100003.84;;;15.70;77.11
17781;BME280;8498;52.516;13.790;2023-03-23T15:37:31;99964.06;;;15.75;80.09
17781;BME280;8498;52.516;13.790;2023-03-23T15:43:16;99965.56;;;15.96;80.80
17781;BME280;8498;52.516;13.790;2023-03-23T15:48:51;99966.00;;;15.91;80.20
17781;BME280;8498;52.516;13.790;2023-03-23T15:54:16;99974.38;;;15.88;81.10
17781;BME280;8498;52.516;13.790;2023-03-23T15:59:42;99973.94;;;16.01;78.09
17781;BME280;8498;52.516;13.790;2023-03-23T16:05:05;99983.72;;;16.10;77.00
17781;BME280;8498;52.516;13.790;2023-03-23T16:10:28;99981.22;;;16.08;73.50
17781;BME280;8498;52.516;13.790;2023-03-23T16:15:51;99992.00;;;16.17;71.78
17781;BME280;8498;52.516;13.790;2023-03-23T16:21:14;100002.13;;;16.05;69.51
17781;BME280;8498;52.516;13.790;2023-03-23T16:26:38;100001.59;;;16.01;68.86
17781;BME280;8498;52.516;13.790;2023-03-23T16:32:02;100018.00;;;15.98;67.60
17781;BME280;8498;52.516;13.790;2023-03-23T16:37:27;100023.41;;;16.06;66.25
17781;BME280;8498;52.516;13.790;2023-03-23T16:42:54;100014.53;;;16.06;65.10
17781;BME280;8498;52.516;13.790;2023-03-23T16:48:20;100015.88;;;16.10;65.64
17781;BME280;8498;52.516;13.790;2023-03-23T16:53:43;100021.78;;;16.13;65.96
17781;BME280;8498;52.516;13.790;2023-03-23T16:59:05;100016.13;;;15.99;66.42
17781;BME280;8498;52.516;13.790;2023-03-23T17:04:29;100043.31;;;16.04;65.42
17781;BME280;8498;52.516;13.790;2023-03-23T17:09:53;100054.31;;;16.01;65.61
17781;BME280;8498;52.516;13.790;2023-03-23T17:15:15;100063.22;;;15.84;65.25
17781;BME280;8498;52.516;13.790;2023-03-23T17:20:38;100055.94;;;15.94;65.10
17781;BME280;8498;52.516;13.790;2023-03-23T17:26:01;100066.50;;;15.95;64.66
17781;BME280;8498;52.516;13.790;2023-03-23T17:31:25;100078.22;;;15.94;65.03
17781;BME280;8498;52.516;13.790;2023-03-23T17:36:47;100094.50;;;15.65;68.09
17781;BME280;8498;52.516;13.790;2023-03-23T17:42:10;100101.09;;;15.43;70.06
17781;BME280;8498;52.516;13.790;2023-03-23T17:47:33;100103.06;;;15.41;72.27
17781;BME280;8498;52.516;13.790;2023-03-23T17:52:56;100113.22;;;15.11;72.36
17781;BME280;8498;52.516;13.790;2023-03-23T17:58:18;100124.75;;;15.11;72.80
17781;BME280;8498;52.516;13.790;2023-03-23T18:03:41;100126.63;;;15.01;73.71
17781;BME280;8498;52.516;13.790;2023-03-23T18:09:06;100112.44;;;14.91;77.00
17781;BME280;8498;52.516;13.790;2023-03-23T18:14:29;100110.53;;;14.64;79.13
17781;BME280;8498;52.516;13.790;2023-03-23T18:19:51;100095.69;;;14.52;79.75
17781;BME280;8498;52.516;13.790;2023-03-23T18:25:14;100108.75;;;14.45;78.93
17781;BME280;8498;52.516;13.790;2023-03-23T18:30:37;100105.22;;;14.35;79.39
17781;BME280;8498;52.516;13.790;2023-03-23T18:36:00;100134.59;;;14.35;80.14
17781;BME280;8498;52.516;13.790;2023-03-23T18:41:24;100156.97;;;14.34;80.03
17781;BME280;8498;52.516;13.790;2023-03-23T18:46:47;100166.41;;;14.28;79.80
17781;BME280;8498;52.516;13.790;2023-03-23T18:52:09;100188.03;;;14.25;80.23
17781;BME280;8498;52.516;13.790;2023-03-23T18:57:31;100180.59;;;14.19;81.17
17781;BME280;8498;52.516;13.790;2023-03-23T19:02:54;100194.66;;;14.12;83.23
17781;BME280;8498;52.516;13.790;2023-03-23T19:08:17;100172.97;;;13.95;84.65
17781;BME280;8498;52.516;13.790;2023-03-23T19:13:39;100167.50;;;13.87;85.30
17781;BME280;8498;52.516;13.790;2023-03-23T19:19:22;100165.91;;;13.75;86.47
17781;BME280;8498;52.516;13.790;2023-03-23T19:24:46;100178.03;;;13.79;86.79
17781;BME280;8498;52.516;13.790;2023-03-23T19:30:09;100181.66;;;13.78;87.27
17781;BME280;8498;52.516;13.790;2023-03-23T19:35:31;100187.28;;;13.75;88.83
17781;BME280;8498;52.516;13.790;2023-03-23T19:40:55;100182.75;;;13.66;91.04
17781;BME280;8498;52.516;13.790;2023-03-23T19:46:26;100188.59;;;13.50;92.63
17781;BME280;8498;52.516;13.790;2023-03-23T19:51:53;100189.09;;;13.35;94.67
17781;BME280;8498;52.516;13.790;2023-03-23T19:57:31;100179.25;;;13.26;95.68
17781;BME280;8498;52.516;13.790;2023-03-23T20:02:54;100180.41;;;13.12;96.19
17781;BME280;8498;52.516;13.790;2023-03-23T20:08:17;100186.66;;;13.01;96.79
17781;BME280;8498;52.516;13.790;2023-03-23T20:13:40;100183.16;;;12.80;97.28
17781;BME280;8498;52.516;13.790;2023-03-23T20:19:02;100180.84;;;12.66;97.19
17781;BME280;8498;52.516;13.790;2023-03-23T20:24:27;100185.75;;;12.49;98.25
17781;BME280;8498;52.516;13.790;2023-03-23T20:29:52;100173.81;;;12.44;98.97
17781;BME280;8498;52.516;13.790;2023-03-23T20:35:15;100179.50;;;12.39;100.00
17781;BME280;8498;52.516;13.790;2023-03-23T20:40:38;100181.44;;;12.37;100.00
17781;BME280;8498;52.516;13.790;2023-03-23T20:46:01;100180.22;;;12.41;100.00
17781;BME280;8498;52.516;13.790;2023-03-23T20:51:25;100178.16;;;12.45;100.00
17781;BME280;8498;52.516;13.790;2023-03-23T20:56:47;100174.06;;;12.41;100.00
17781;BME280;8498;52.516;13.790;2023-03-23T21:02:13;100167.34;;;12.46;100.00
17781;BME280;8498;52.516;13.790;2023-03-23T21:07:36;100170.03;;;12.46;100.00
17781;BME280;8498;52.516;13.790;2023-03-23T21:13:00;100166.91;;;12.41;100.00
17781;BME280;8498;52.516;13.790;2023-03-23T21:18:23;100171.28;;;12.42;100.00
17781;BME280;8498;52.516;13.790;2023-03-23T21:23:46;100164.25;;;12.41;100.00
17781;BME280;8498;52.516;13.790;2023-03-23T21:29:14;100154.94;;;12.36;100.00
17781;BME280;8498;52.516;13.790;2023-03-23T21:34:36;100151.47;;;12.35;100.00
17781;BME280;8498;52.516;13.790;2023-03-23T21:39:59;100149.47;;;12.37;100.00
17781;BME280;8498;52.516;13.790;2023-03-23T21:45:22;100160.53;;;12.33;100.00
17781;BME280;8498;52.516;13.790;2023-03-23T21:50:46;100147.34;;;12.31;100.00
17781;BME280;8498;52.516;13.790;2023-03-23T21:56:10;100145.47;;;12.22;100.00
17781;BME280;8498;52.516;13.790;2023-03-23T22:01:33;100128.38;;;12.25;100.00
17781;BME280;8498;52.516;13.790;2023-03-23T22:06:58;100127.84;;;12.31;100.00
17781;BME280;8498;52.516;13.790;2023-03-23T22:12:21;100125.31;;;12.29;100.00
17781;BME280;8498;52.516;13.790;2023-03-23T22:17:43;100123.88;;;12.25;100.00
17781;BME280;8498;52.516;13.790;2023-03-23T22:23:06;100118.34;;;12.17;100.00
17781;BME280;8498;52.516;13.790;2023-03-23T22:28:29;100111.38;;;12.05;100.00
17781;BME280;8498;52.516;13.790;2023-03-23T22:33:54;100114.13;;;11.94;100.00
17781;BME280;8498;52.516;13.790;2023-03-23T22:39:16;100112.34;;;11.83;100.00
17781;BME280;8498;52.516;13.790;2023-03-23T22:44:39;100103.63;;;11.70;100.00
17781;BME280;8498;52.516;13.790;2023-03-23T22:50:06;100101.38;;;11.54;100.00
17781;BME280;8498;52.516;13.790;2023-03-23T22:55:29;100095.59;;;11.38;100.00
17781;BME280;8498;52.516;13.790;2023-03-23T23:01:03;100098.78;;;11.21;100.00
17781;BME280;8498;52.516;13.790;2023-03-23T23:06:27;100085.50;;;11.10;100.00
17781;BME280;8498;52.516;13.790;2023-03-23T23:11:49;100077.53;;;10.98;100.00
17781;BME280;8498;52.516;13.790;2023-03-23T23:17:12;100075.34;;;10.92;100.00
17781;BME280;8498;52.516;13.790;2023-03-23T23:22:35;100075.13;;;10.84;100.00
17781;BME280;8498;52.516;13.790;2023-03-23T23:27:59;100077.31;;;10.79;100.00
17781;BME280;8498;52.516;13.790;2023-03-23T23:33:22;100068.38;;;10.69;100.00
17781;BME280;8498;52.516;13.790;2023-03-23T23:38:44;100072.09;;;10.66;100.00
17781;BME280;8498;52.516;13.790;2023-03-23T23:44:06;100064.13;;;10.66;100.00
17781;BME280;8498;52.516;13.790;2023-03-23T23:49:29;100057.22;;;10.64;100.00
17781;BME280;8498;52.516;13.790;2023-03-23T23:54:55;100051.19;;;10.62;100.00
